Time;durP1;ratioP1;P1;durP2;ratioP2;P2;SDS_P1;SDS_P2;PMS_P1;PMS_P2;Temp;Humidity;BMP_temperature;BMP_pressure;BME280_temperature;BME280_humidity;BME280_pressure;Samples;Min_cycle;Max_cycle;Signal;HPM_P1;HPM_P2
2022/04/25 00:00:56;;;;;;;23.27;6.50;;;11.00;99.90;;;;;;5055912;28;20040;-77
2022/04/25 00:03:22;;;;;;;11.20;6.40;;;11.00;99.90;;;;;;5055903;28;20029;-78
2022/04/25 00:05:48;;;;;;;13.75;5.82;;;11.00;99.90;;;;;;5037625;28;20029;-76
2022/04/25 00:08:13;;;;;;;11.65;5.88;;;10.80;99.90;;;;;;5055900;28;20140;-78
2022/04/25 00:10:39;;;;;;;13.43;6.32;;;10.90;99.90;;;;;;5055725;28;20025;-78
2022/04/25 00:13:05;;;;;;;15.20;6.57;;;10.80;99.90;;;;;;5055818;28;20484;-77
2022/04/25 00:15:31;;;;;;;14.95;6.70;;;10.80;99.90;;;;;;5055816;28;20037;-78
2022/04/25 00:17:57;;;;;;;16.80;7.30;;;10.80;99.90;;;;;;5055569;28;20074;-77
2022/04/25 00:20:22;;;;;;;16.15;6.80;;;10.80;99.90;;;;;;5029767;28;20037;-76
2022/04/25 00:22:48;;;;;;;14.55;6.13;;;10.70;99.90;;;;;;5035593;28;20063;-76
2022/04/25 00:25:14;;;;;;;15.50;6.68;;;10.70;99.90;;;;;;5035647;28;20032;-75
2022/04/25 00:27:39;;;;;;;20.65;6.57;;;10.80;99.90;;;;;;5035421;28;20079;-76
2022/04/25 00:30:06;;;;;;;15.00;7.28;;;10.80;99.90;;;;;;5017881;28;20034;-74
2022/04/25 00:32:32;;;;;;;17.58;7.38;;;10.70;99.90;;;;;;5035480;28;20068;-77
2022/04/25 00:34:58;;;;;;;17.38;6.93;;;10.70;99.90;;;;;;5035051;28;20064;-76
2022/04/25 00:37:24;;;;;;;15.82;7.28;;;10.70;99.90;;;;;;5035205;28;20041;-77
2022/04/25 00:39:50;;;;;;;13.88;6.45;;;10.60;99.90;;;;;;5035425;28;20029;-77
2022/04/25 00:42:16;;;;;;;15.05;7.40;;;10.60;99.90;;;;;;5034805;28;20363;-77
2022/04/25 00:44:42;;;;;;;16.65;7.32;;;10.60;99.90;;;;;;5017385;28;20033;-73
2022/04/25 00:47:09;;;;;;;14.43;7.38;;;10.60;99.90;;;;;;5036836;28;20030;-73
2022/04/25 00:49:35;;;;;;;27.30;8.18;;;10.60;99.90;;;;;;5054889;28;20035;-76
2022/04/25 00:52:01;;;;;;;16.20;7.05;;;10.70;99.90;;;;;;5037309;28;20059;-75
2022/04/25 00:54:27;;;;;;;21.42;8.10;;;10.70;99.90;;;;;;5055296;28;20025;-76
2022/04/25 00:56:53;;;;;;;15.45;7.85;;;10.60;99.90;;;;;;5054683;28;20485;-76
2022/04/25 00:59:21;;;;;;;15.50;7.22;;;10.70;99.90;;;;;;5055056;28;20044;-77
2022/04/25 01:01:47;;;;;;;20.77;7.72;;;10.70;99.90;;;;;;5054939;28;20428;-76
2022/04/25 01:04:13;;;;;;;14.00;7.10;;;10.70;99.90;;;;;;5054354;28;20025;-77
2022/04/25 01:06:40;;;;;;;19.02;7.53;;;10.70;99.90;;;;;;5036995;28;20481;-78
2022/04/25 01:09:06;;;;;;;21.23;7.75;;;10.60;99.90;;;;;;5054688;28;20068;-77
2022/04/25 01:11:32;;;;;;;24.60;8.02;;;10.60;99.90;;;;;;5054472;28;20462;-77
2022/04/25 01:14:09;;;;;;;13.52;8.02;;;10.80;99.90;;;;;;5054662;28;20171;-76
2022/04/25 01:16:35;;;;;;;17.90;8.25;;;10.70;99.90;;;;;;5054548;28;20080;-74
2022/04/25 01:19:01;;;;;;;20.90;8.20;;;10.50;99.90;;;;;;5036397;28;20056;-76
2022/04/25 01:21:31;;;;;;;19.65;8.85;;;10.40;99.90;;;;;;5054563;28;20473;-77
2022/04/25 01:29:27;;;;;;;19.70;8.85;;;10.40;99.90;;;;;;5054416;28;20434;-75
2022/04/25 01:31:52;;;;;;;20.48;8.73;;;10.40;99.90;;;;;;5054175;28;20037;-77
2022/04/25 01:34:18;;;;;;;20.23;9.88;;;10.30;99.90;;;;;;5054157;28;20033;-74
2022/04/25 01:36:44;;;;;;;18.70;9.07;;;10.30;99.90;;;;;;5054211;28;20105;-74
2022/04/25 01:39:09;;;;;;;16.85;10.13;;;10.20;99.90;;;;;;5054161;28;20021;-77
2022/04/25 01:41:35;;;;;;;20.65;9.07;;;10.20;99.90;;;;;;5054148;28;20116;-77
2022/04/25 01:44:01;;;;;;;20.10;9.90;;;10.20;99.90;;;;;;5054014;28;20064;-74
2022/04/25 01:46:26;;;;;;;20.27;9.38;;;10.10;99.90;;;;;;5054201;28;20064;-74
2022/04/25 01:48:52;;;;;;;19.58;10.07;;;10.10;99.90;;;;;;5053562;28;20141;-74
2022/04/25 01:51:20;;;;;;;16.40;9.35;;;10.10;99.90;;;;;;5054073;28;20491;-74
2022/04/25 01:53:45;;;;;;;24.23;10.70;;;10.20;99.90;;;;;;5053086;28;20056;-75
2022/04/25 01:56:11;;;;;;;21.27;9.90;;;10.10;99.90;;;;;;5053694;28;20072;-74
2022/04/25 01:58:37;;;;;;;25.02;9.93;;;10.20;99.90;;;;;;5053697;28;20033;-76
2022/04/25 02:01:06;;;;;;;15.73;9.75;;;10.20;99.90;;;;;;5053856;28;20060;-76
2022/04/25 02:03:34;;;;;;;22.75;10.43;;;10.20;99.90;;;;;;5053415;28;20072;-76
2022/04/25 02:06:01;;;;;;;19.20;10.43;;;10.20;99.90;;;;;;5035639;28;20029;-76
2022/04/25 02:08:26;;;;;;;21.27;10.85;;;10.10;99.90;;;;;;5053530;28;20033;-74
2022/04/25 02:13:37;;;;;;;17.10;10.15;;;10.20;99.90;;;;;;5053512;28;20029;-75
2022/04/25 02:16:03;;;;;;;17.50;10.60;;;10.20;99.90;;;;;;5053138;28;20044;-75
2022/04/25 02:18:29;;;;;;;22.10;11.23;;;10.20;99.90;;;;;;5035620;28;20108;-76
2022/04/25 02:20:55;;;;;;;17.60;11.25;;;10.10;99.90;;;;;;5053203;28;20190;-75
2022/04/25 02:23:21;;;;;;;16.75;11.55;;;10.10;99.90;;;;;;5035507;28;20024;-76
2022/04/25 02:25:46;;;;;;;25.40;11.98;;;10.00;99.90;;;;;;5053309;28;20033;-74
2022/04/25 02:28:12;;;;;;;21.65;11.00;;;10.10;99.90;;;;;;5035476;28;20033;-75
2022/04/25 02:30:38;;;;;;;18.00;11.25;;;10.20;99.90;;;;;;5052728;28;20067;-76
2022/04/25 02:33:03;;;;;;;20.55;12.38;;;10.10;99.90;;;;;;5053433;28;20021;-77
2022/04/25 02:35:29;;;;;;;16.67;11.13;;;10.10;99.90;;;;;;5053093;28;20036;-77
2022/04/25 02:37:55;;;;;;;20.65;11.27;;;10.10;99.90;;;;;;5053021;28;20143;-76
2022/04/25 02:40:21;;;;;;;24.73;12.05;;;10.10;99.90;;;;;;5053068;28;20044;-76
2022/04/25 02:42:46;;;;;;;21.25;12.00;;;10.20;99.90;;;;;;5053086;28;20021;-76
2022/04/25 02:45:12;;;;;;;23.17;11.85;;;10.10;99.90;;;;;;5052622;28;20048;-76
2022/04/25 02:47:39;;;;;;;27.38;12.10;;;10.10;99.90;;;;;;5052730;28;20025;-76
2022/04/25 02:50:05;;;;;;;24.98;11.93;;;10.30;99.90;;;;;;5052855;28;20039;-76
2022/04/25 02:52:31;;;;;;;20.48;11.85;;;10.20;99.90;;;;;;5052888;28;20048;-77
2022/04/25 02:54:57;;;;;;;25.77;11.63;;;10.20;99.90;;;;;;5052803;28;20140;-76
2022/04/25 02:57:23;;;;;;;24.20;11.48;;;10.20;99.90;;;;;;5052694;28;20179;-76
2022/04/25 02:59:48;;;;;;;25.70;12.55;;;10.00;99.90;;;;;;5052530;28;20032;-76
2022/04/25 03:02:15;;;;;;;21.90;12.15;;;10.00;99.90;;;;;;5052728;28;20032;-76
2022/04/25 03:04:41;;;;;;;22.67;11.82;;;10.00;99.90;;;;;;5052457;28;20037;-76
2022/04/25 03:07:07;;;;;;;19.17;10.95;;;10.20;99.90;;;;;;5052501;28;20087;-77
2022/04/25 03:09:33;;;;;;;21.52;11.80;;;10.20;99.90;;;;;;5052768;28;20096;-76
2022/04/25 03:11:58;;;;;;;21.38;12.52;;;10.10;99.90;;;;;;5052499;28;20056;-76
2022/04/25 03:14:26;;;;;;;24.02;11.85;;;10.20;99.90;;;;;;5052668;28;20052;-77
2022/04/25 03:16:52;;;;;;;19.08;11.23;;;10.10;99.90;;;;;;5071387;28;20429;-76
2022/04/25 03:19:18;;;;;;;25.40;11.95;;;10.00;99.90;;;;;;5072857;28;20067;-77
2022/04/25 03:21:45;;;;;;;18.05;11.55;;;10.00;99.90;;;;;;5072508;28;20032;-76
2022/04/25 03:24:11;;;;;;;18.30;11.43;;;10.00;99.90;;;;;;5072786;28;20062;-76
2022/04/25 03:26:37;;;;;;;19.88;11.77;;;9.90;99.90;;;;;;5072534;28;20036;-76
2022/04/25 03:29:03;;;;;;;19.35;11.77;;;9.90;99.90;;;;;;5072398;28;20035;-75
2022/04/25 03:31:28;;;;;;;31.35;11.95;;;10.00;99.90;;;;;;5072742;28;20024;-76
2022/04/25 03:33:55;;;;;;;19.27;11.68;;;10.00;99.90;;;;;;5072513;28;20029;-76
2022/04/25 03:36:21;;;;;;;20.40;11.75;;;9.90;99.90;;;;;;5072733;28;20116;-75
2022/04/25 03:38:46;;;;;;;19.45;11.55;;;9.90;99.90;;;;;;5054896;28;20039;-75
2022/04/25 03:41:12;;;;;;;21.33;11.65;;;9.90;99.90;;;;;;5072402;28;20461;-75
2022/04/25 03:43:38;;;;;;;24.65;12.00;;;9.90;99.90;;;;;;5072258;28;20025;-76
2022/04/25 03:46:05;;;;;;;23.52;13.13;;;9.90;99.90;;;;;;5072288;28;20025;-74
2022/04/25 03:48:30;;;;;;;26.23;12.13;;;9.90;99.90;;;;;;5041083;28;20107;-75
2022/04/25 03:50:56;;;;;;;25.30;13.10;;;9.90;99.90;;;;;;5052243;28;20524;-75
2022/04/25 03:53:22;;;;;;;19.50;12.25;;;10.00;99.90;;;;;;5052642;28;20029;-75
2022/04/25 03:58:32;;;;;;;22.50;12.80;;;10.00;99.90;;;;;;5052032;28;20362;-76
2022/04/25 04:00:58;;;;;;;23.80;12.75;;;9.70;99.90;;;;;;5034244;28;20037;-75
2022/04/25 04:03:23;;;;;;;26.80;12.40;;;9.90;99.90;;;;;;5052282;28;20438;-75
2022/04/25 04:05:50;;;;;;;25.90;13.05;;;9.90;99.90;;;;;;5052132;28;20506;-74
2022/04/25 04:08:16;;;;;;;26.17;13.05;;;9.90;99.90;;;;;;5052104;28;20082;-74
2022/04/25 04:10:42;;;;;;;21.13;11.48;;;9.80;99.90;;;;;;5034431;28;20491;-75
2022/04/25 04:13:08;;;;;;;22.15;12.52;;;9.90;99.90;;;;;;5051741;28;20066;-73
2022/04/25 04:15:35;;;;;;;22.73;12.00;;;10.10;99.90;;;;;;5052870;28;20076;-75
2022/04/25 04:18:01;;;;;;;22.70;12.32;;;10.00;99.90;;;;;;5037626;28;20032;-74
2022/04/25 04:20:27;;;;;;;22.00;11.20;;;10.10;99.90;;;;;;5055853;28;20135;-75
2022/04/25 04:22:52;;;;;;;20.95;12.38;;;10.10;99.90;;;;;;5037744;28;20112;-73
2022/04/25 04:25:18;;;;;;;22.10;12.90;;;10.30;99.90;;;;;;5055783;28;20462;-73
2022/04/25 04:27:45;;;;;;;19.92;12.35;;;10.30;99.90;;;;;;5055115;28;20036;-75
2022/04/25 04:30:12;;;;;;;24.52;12.88;;;10.30;99.90;;;;;;5055661;28;20037;-75
2022/04/25 04:32:40;;;;;;;24.40;12.20;;;10.20;99.90;;;;;;5055301;28;20067;-74
2022/04/25 04:35:10;;;;;;;26.33;12.35;;;10.30;99.90;;;;;;5055490;28;20481;-76
2022/04/25 04:37:37;;;;;;;28.95;12.25;;;10.30;99.90;;;;;;5055278;28;20045;-75
2022/04/25 04:42:50;;;;;;;27.98;12.25;;;10.30;99.90;;;;;;5055019;28;20029;-74
2022/04/25 04:45:15;;;;;;;28.13;12.57;;;10.40;99.90;;;;;;5037418;28;20044;-73
2022/04/25 04:47:42;;;;;;;21.15;12.05;;;10.30;99.90;;;;;;5054983;28;20397;-76
2022/04/25 04:50:16;;;;;;;27.73;12.90;;;10.30;99.90;;;;;;5055072;28;20033;-76
2022/04/25 04:52:56;;;;;;;26.27;12.50;;;10.30;99.90;;;;;;5055140;28;20428;-75
2022/04/25 04:55:22;;;;;;;21.92;12.75;;;10.50;99.90;;;;;;5055190;28;20039;-75
2022/04/25 04:57:48;;;;;;;19.92;12.20;;;10.40;99.90;;;;;;5054641;28;20020;-75
2022/04/25 05:00:15;;;;;;;29.52;12.88;;;10.40;99.90;;;;;;5053750;28;20060;-75
2022/04/25 05:02:42;;;;;;;30.00;12.13;;;10.40;99.90;;;;;;5054792;28;20039;-76
2022/04/25 05:05:09;;;;;;;25.38;11.75;;;10.30;99.90;;;;;;5054612;28;20095;-74
2022/04/25 05:07:35;;;;;;;20.45;12.20;;;10.40;99.90;;;;;;5037500;28;20051;-74
2022/04/25 05:10:03;;;;;;;20.30;10.82;;;10.30;99.90;;;;;;5054762;28;20378;-74
2022/04/25 05:12:30;;;;;;;22.80;11.00;;;10.40;99.90;;;;;;5054806;28;20029;-74
2022/04/25 05:14:57;;;;;;;22.33;12.02;;;10.40;99.90;;;;;;5054635;28;20111;-74
2022/04/25 05:17:23;;;;;;;31.50;11.80;;;10.30;99.90;;;;;;5054728;28;20064;-73
2022/04/25 05:19:49;;;;;;;20.73;11.75;;;10.40;99.90;;;;;;5054657;28;20501;-75
2022/04/25 05:22:15;;;;;;;21.40;11.43;;;10.30;99.90;;;;;;5054583;28;20021;-75
2022/04/25 05:24:41;;;;;;;29.67;12.48;;;10.20;99.90;;;;;;5054047;28;20025;-76
2022/04/25 05:27:07;;;;;;;25.52;12.45;;;10.50;99.90;;;;;;5054716;28;20036;-77
2022/04/25 05:29:33;;;;;;;24.80;11.70;;;10.30;99.90;;;;;;5054471;28;20079;-76
2022/04/25 05:31:58;;;;;;;20.88;12.02;;;10.40;99.90;;;;;;5036400;28;20025;-77
2022/04/25 05:34:25;;;;;;;26.45;11.18;;;10.50;99.90;;;;;;5054147;28;20158;-76
2022/04/25 05:36:50;;;;;;;23.42;12.13;;;10.70;99.90;;;;;;5054217;28;20093;-75
2022/04/25 05:39:16;;;;;;;21.45;11.85;;;10.70;99.90;;;;;;5053784;28;20116;-76
2022/04/25 05:41:42;;;;;;;22.55;10.80;;;10.70;99.90;;;;;;5054242;28;20028;-76
2022/04/25 05:44:12;;;;;;;18.02;10.75;;;10.70;99.90;;;;;;5053748;28;20022;-76
2022/04/25 05:46:38;;;;;;;26.38;11.77;;;10.70;99.90;;;;;;5053961;28;20457;-76
2022/04/25 05:52:02;;;;;;;22.10;11.38;;;10.70;99.90;;;;;;5053928;28;20069;-76
2022/04/25 05:54:29;;;;;;;25.63;11.50;;;10.80;99.90;;;;;;5052319;28;20025;-77
2022/04/25 05:56:55;;;;;;;26.25;11.32;;;10.70;99.90;;;;;;5035845;28;20521;-76
2022/04/25 05:59:21;;;;;;;26.85;10.90;;;10.80;99.90;;;;;;5053713;28;20013;-76
2022/04/25 06:01:47;;;;;;;24.00;10.80;;;10.70;99.90;;;;;;5053698;28;20092;-76
2022/04/25 06:04:12;;;;;;;24.83;11.20;;;10.80;99.90;;;;;;5035450;28;20547;-75
2022/04/25 06:06:38;;;;;;;23.70;10.82;;;10.90;99.90;;;;;;5053484;28;20033;-77
2022/04/25 06:09:04;;;;;;;23.75;10.82;;;10.90;99.90;;;;;;5053262;28;20488;-76
2022/04/25 06:11:30;;;;;;;25.25;9.90;;;11.10;99.90;;;;;;5053664;28;20098;-76
2022/04/25 06:13:56;;;;;;;25.38;9.95;;;11.30;99.90;;;;;;5053327;28;20040;-75
2022/04/25 06:16:22;;;;;;;23.23;9.75;;;11.40;99.90;;;;;;5054198;28;20115;-77
2022/04/25 06:18:47;;;;;;;24.35;10.85;;;11.50;99.90;;;;;;5053997;28;20505;-76
2022/04/25 06:21:13;;;;;;;21.13;11.05;;;11.80;99.90;;;;;;5035878;28;20050;-76
2022/04/25 06:23:39;;;;;;;19.98;10.20;;;11.40;99.90;;;;;;5053110;28;20056;-76
2022/04/25 06:26:05;;;;;;;22.15;10.02;;;11.60;99.90;;;;;;5035450;28;20075;-76
2022/04/25 06:28:31;;;;;;;25.77;10.95;;;11.60;99.90;;;;;;5054706;28;20100;-76
2022/04/25 06:30:56;;;;;;;19.40;9.75;;;11.50;99.90;;;;;;5035501;28;20036;-76
2022/04/25 06:33:22;;;;;;;22.95;10.60;;;11.60;99.90;;;;;;5053261;28;20504;-76
2022/04/25 06:35:51;;;;;;;23.45;9.52;;;11.70;99.90;;;;;;5053395;28;20043;-77
2022/04/25 06:38:18;;;;;;;22.30;10.50;;;11.70;99.90;;;;;;5034884;28;20052;-76
2022/04/25 06:40:46;;;;;;;24.98;10.32;;;11.80;99.90;;;;;;5053559;28;20056;-76
2022/04/25 06:43:13;;;;;;;28.25;11.00;;;11.70;99.90;;;;;;5054222;28;20027;-76
2022/04/25 06:45:40;;;;;;;21.92;10.00;;;11.90;99.90;;;;;;5034925;28;20029;-77
2022/04/25 06:48:06;;;;;;;19.00;10.48;;;11.90;99.90;;;;;;5052709;28;20486;-77
2022/04/25 06:50:31;;;;;;;20.08;9.68;;;11.80;99.90;;;;;;5052978;28;20064;-77
2022/04/25 06:52:57;;;;;;;25.85;11.27;;;11.80;99.90;;;;;;5052674;28;20031;-75
2022/04/25 06:55:23;;;;;;;18.80;10.20;;;11.90;99.90;;;;;;5052638;28;20021;-77
2022/04/25 06:57:49;;;;;;;21.23;10.27;;;11.70;99.90;;;;;;5052790;28;20031;-76
2022/04/25 07:00:17;;;;;;;21.88;10.20;;;11.60;99.90;;;;;;5052720;28;20112;-77
2022/04/25 07:02:44;;;;;;;17.23;10.93;;;11.70;99.90;;;;;;5052530;28;20028;-76
2022/04/25 07:05:10;;;;;;;19.77;11.50;;;11.90;99.90;;;;;;5052392;28;20087;-77
2022/04/25 07:07:37;;;;;;;24.90;12.55;;;11.90;99.90;;;;;;5052388;28;20029;-77
2022/04/25 07:10:05;;;;;;;22.17;12.15;;;12.10;99.90;;;;;;5044910;28;20033;-76
2022/04/25 07:12:31;;;;;;;26.70;11.45;;;12.10;99.90;;;;;;5048533;28;20052;-76
2022/04/25 07:14:57;;;;;;;20.08;11.60;;;12.00;99.90;;;;;;5038454;28;20052;-75
2022/04/25 07:17:23;;;;;;;22.42;11.48;;;12.00;99.90;;;;;;5041732;28;20072;-76
2022/04/25 07:19:49;;;;;;;20.17;11.90;;;12.10;99.90;;;;;;5044704;28;20038;-76
2022/04/25 07:30:29;;;;;;;23.92;12.10;;;12.20;99.90;;;;;;5035354;28;20099;-76
2022/04/25 07:32:57;;;;;;;25.25;12.77;;;12.50;99.90;;;;;;5045736;28;20109;-76
2022/04/25 07:35:23;;;;;;;23.45;11.75;;;12.60;99.90;;;;;;5041359;28;20444;-77
2022/04/25 07:37:49;;;;;;;23.52;12.13;;;12.70;99.90;;;;;;5038124;28;20034;-76
2022/04/25 07:40:14;;;;;;;32.33;10.43;;;12.90;99.90;;;;;;5047828;28;20059;-77
2022/04/25 07:42:40;;;;;;;22.13;12.27;;;13.00;99.90;;;;;;5036051;28;20028;-75
2022/04/25 07:45:08;;;;;;;27.60;12.13;;;12.90;99.90;;;;;;5043652;28;20385;-77
2022/04/25 07:47:34;;;;;;;22.60;11.93;;;13.10;99.90;;;;;;5043005;28;20040;-77
2022/04/25 07:50:00;;;;;;;25.17;12.48;;;13.10;99.90;;;;;;5034777;28;20125;-76
2022/04/25 07:52:27;;;;;;;27.75;12.75;;;13.10;99.90;;;;;;5037753;28;20034;-77
2022/04/25 07:54:55;;;;;;;24.80;12.82;;;12.60;99.90;;;;;;5049622;28;20037;-77
2022/04/25 07:57:20;;;;;;;33.63;14.02;;;12.70;99.90;;;;;;5044843;28;20041;-77
2022/04/25 07:59:47;;;;;;;21.27;14.15;;;13.00;99.90;;;;;;5042066;28;20041;-77
2022/04/25 08:02:13;;;;;;;18.65;13.13;;;13.20;99.90;;;;;;5051411;28;20021;-75
2022/04/25 08:04:39;;;;;;;21.38;13.70;;;13.20;99.90;;;;;;5054983;28;20066;-77
2022/04/25 08:07:05;;;;;;;28.73;14.43;;;13.00;99.90;;;;;;5047214;28;20030;-76
2022/04/25 08:09:31;;;;;;;27.20;14.57;;;13.30;99.90;;;;;;5045949;28;20119;-77
2022/04/25 08:18:04;;;;;;;22.75;13.63;;;13.10;99.90;;;;;;5039096;28;20063;-75
2022/04/25 08:20:35;;;;;;;24.30;14.43;;;12.70;99.90;;;;;;5033535;28;20083;-76
2022/04/25 08:23:03;;;;;;;29.02;15.18;;;12.60;99.90;;;;;;5030677;28;20469;-76
2022/04/25 08:25:30;;;;;;;29.10;15.65;;;12.60;99.90;;;;;;5054911;28;20036;-76
2022/04/25 08:28:00;;;;;;;25.95;14.65;;;12.30;99.90;;;;;;5040020;28;20033;-77
2022/04/25 08:30:26;;;;;;;24.58;14.60;;;12.50;99.90;;;;;;5050889;28;20021;-77
2022/04/25 08:32:54;;;;;;;38.38;15.50;;;12.70;99.90;;;;;;5040734;28;20107;-77
2022/04/25 08:35:21;;;;;;;22.83;14.38;;;12.70;99.90;;;;;;5044879;28;20048;-77
2022/04/25 08:37:47;;;;;;;20.88;14.77;;;13.00;99.90;;;;;;5047804;28;20504;-77
2022/04/25 08:40:14;;;;;;;20.70;13.73;;;13.20;99.90;;;;;;5049845;28;20033;-77
2022/04/25 08:42:40;;;;;;;22.90;14.38;;;13.30;99.90;;;;;;5038606;28;20036;-77
2022/04/25 08:45:07;;;;;;;26.38;14.27;;;13.40;99.90;;;;;;5046944;28;20026;-78
2022/04/25 08:47:44;;;;;;;19.35;13.85;;;13.70;99.90;;;;;;5040012;28;20018;-78
2022/04/25 08:50:10;;;;;;;24.42;13.63;;;13.90;99.90;;;;;;5051002;28;20354;-77
2022/04/25 08:52:36;;;;;;;19.45;13.50;;;13.90;99.90;;;;;;5037995;28;20044;-77
2022/04/25 08:55:02;;;;;;;19.60;14.52;;;13.40;99.90;;;;;;5047239;28;20104;-77
2022/04/25 08:57:31;;;;;;;21.80;14.90;;;13.40;99.90;;;;;;5044654;28;20045;-78
2022/04/25 08:59:57;;;;;;;22.77;13.13;;;13.30;99.90;;;;;;5039670;28;20063;-76
2022/04/25 09:02:23;;;;;;;21.15;13.57;;;13.20;99.90;;;;;;5060829;28;20032;-76
2022/04/25 09:04:50;;;;;;;18.38;12.48;;;13.10;99.90;;;;;;5068854;28;20354;-74
2022/04/25 09:07:19;;;;;;;23.13;12.18;;;12.80;99.90;;;;;;5053849;28;20500;-77
2022/04/25 09:09:46;;;;;;;18.52;11.13;;;13.00;99.90;;;;;;5049370;28;20112;-76
2022/04/25 09:12:14;;;;;;;17.15;11.65;;;13.30;99.90;;;;;;5057043;28;20025;-77
2022/04/25 09:14:42;;;;;;;16.15;10.93;;;13.70;99.90;;;;;;5050013;28;20029;-78
2022/04/25 09:17:08;;;;;;;14.90;10.60;;;13.90;99.90;;;;;;5041200;28;20029;-75
2022/04/25 09:19:36;;;;;;;13.23;10.30;;;13.90;99.90;;;;;;5062773;28;20039;-76
2022/04/25 09:22:03;;;;;;;24.48;11.02;;;14.10;99.90;;;;;;5058237;28;20032;-76
2022/04/25 09:24:34;;;;;;;17.77;10.57;;;13.90;99.90;;;;;;5050863;28;20542;-77
2022/04/25 09:27:13;;;;;;;18.00;8.93;;;14.00;99.90;;;;;;5040524;28;20029;-77
2022/04/25 09:29:40;;;;;;;18.48;10.20;;;14.20;99.90;;;;;;5041009;28;20029;-78
2022/04/25 09:32:09;;;;;;;13.32;9.32;;;14.40;99.90;;;;;;5049381;28;20060;-77
2022/04/25 09:37:45;;;;;;;15.00;8.75;;;15.50;99.20;;;;;;5059415;28;20128;-76
2022/04/25 09:40:12;;;;;;;10.82;8.18;;;16.30;97.00;;;;;;5052895;28;20029;-76
2022/04/25 09:42:38;;;;;;;15.32;8.95;;;16.20;96.10;;;;;;5037888;28;20071;-76
2022/04/25 09:45:05;;;;;;;12.07;9.50;;;16.40;96.30;;;;;;5045530;28;20029;-78
2022/04/25 09:47:37;;;;;;;15.65;9.75;;;16.70;95.60;;;;;;5038872;28;20474;-74
2022/04/25 09:50:03;;;;;;;14.65;10.07;;;16.90;96.10;;;;;;5048809;28;20112;-77
2022/04/25 09:52:31;;;;;;;16.05;9.68;;;16.90;96.40;;;;;;5036886;28;20045;-77
2022/04/25 09:55:14;;;;;;;19.92;13.45;;;17.70;95.90;;;;;;5046889;28;20521;-78
2022/04/25 09:57:41;;;;;;;17.33;13.00;;;17.90;95.40;;;;;;5028401;28;20041;-75
2022/04/25 10:00:07;;;;;;;25.48;14.70;;;17.10;96.00;;;;;;5036825;28;20036;-78
2022/04/25 10:02:41;;;;;;;20.50;16.30;;;16.30;96.90;;;;;;5052874;28;20508;-76
2022/04/25 10:05:15;;;;;;;22.80;15.32;;;16.10;98.70;;;;;;5052808;28;20037;-73
2022/04/25 10:07:44;;;;;;;15.63;13.70;;;16.00;99.00;;;;;;5023278;28;20021;-78
2022/04/25 10:10:11;;;;;;;24.02;13.18;;;15.90;98.40;;;;;;5035950;28;20039;-76
2022/04/25 10:12:38;;;;;;;24.40;11.07;;;15.70;97.60;;;;;;5036640;28;20033;-78
2022/04/25 10:15:06;;;;;;;12.60;9.90;;;15.80;97.70;;;;;;5044186;28;20021;-77
2022/04/25 10:17:34;;;;;;;15.13;10.85;;;16.50;96.20;;;;;;5043713;28;20482;-76
2022/04/25 10:20:02;;;;;;;17.83;10.75;;;16.50;95.90;;;;;;5037652;28;20021;-77
2022/04/25 10:22:28;;;;;;;14.07;9.65;;;16.50;95.90;;;;;;5049088;28;20029;-77
2022/04/25 10:24:54;;;;;;;15.55;9.75;;;16.10;95.90;;;;;;5038726;28;20028;-75
2022/04/25 10:27:27;;;;;;;14.32;10.20;;;16.30;96.30;;;;;;5042729;28;20155;-76
2022/04/25 10:29:56;;;;;;;11.35;8.80;;;16.70;96.80;;;;;;5046357;28;20048;-77
2022/04/25 10:32:23;;;;;;;11.55;8.73;;;17.00;94.40;;;;;;5035856;28;20029;-76
2022/04/25 10:34:56;;;;;;;13.18;8.48;;;16.40;94.50;;;;;;5029126;28;20040;-77
2022/04/25 10:37:44;;;;;;;13.15;8.85;;;16.30;94.80;;;;;;5027746;28;20056;-76
2022/04/25 10:40:17;;;;;;;12.38;8.82;;;16.80;94.50;;;;;;5034878;28;20033;-78
2022/04/25 10:46:01;;;;;;;14.32;8.85;;;17.90;93.60;;;;;;5005971;28;20071;-77
2022/04/25 10:48:28;;;;;;;14.20;6.78;;;18.60;92.00;;;;;;5040541;28;20025;-78
2022/04/25 10:51:12;;;;;;;9.25;6.25;;;18.60;90.50;;;;;;5046649;28;20507;-79
2022/04/25 10:53:56;;;;;;;9.35;6.40;;;18.20;90.20;;;;;;5052493;28;20032;-78
2022/04/25 10:56:22;;;;;;;9.07;7.15;;;18.60;90.50;;;;;;5035151;28;20761;-79
2022/04/25 10:59:26;;;;;;;9.50;6.47;;;18.60;90.80;;;;;;5046650;28;20029;-78
2022/04/25 11:01:53;;;;;;;10.23;6.68;;;17.90;91.10;;;;;;5046410;28;20056;-77
2022/04/25 11:04:21;;;;;;;10.00;6.72;;;18.00;90.90;;;;;;5050333;28;20060;-78
2022/04/25 11:06:48;;;;;;;12.30;6.43;;;18.20;90.40;;;;;;5036879;28;20067;-77
2022/04/25 11:09:43;;;;;;;8.55;5.75;;;18.50;90.50;;;;;;5029863;28;20108;-78
2022/04/25 11:12:09;;;;;;;10.77;6.93;;;18.20;90.50;;;;;;5015201;28;20133;-78
2022/04/25 11:14:34;;;;;;;8.38;6.40;;;18.00;90.20;;;;;;5048441;28;20096;-76
2022/04/25 11:17:14;;;;;;;7.60;5.97;;;18.00;90.80;;;;;;5038587;28;20044;-76
2022/04/25 11:19:51;;;;;;;6.93;5.97;;;17.90;91.20;;;;;;5054175;28;20131;-77
2022/04/25 11:22:35;;;;;;;13.93;7.22;;;17.00;91.90;;;;;;5032933;28;20107;-79
2022/04/25 11:25:39;;;;;;;8.55;6.60;;;16.60;93.60;;;;;;5041267;28;20373;-78
2022/04/25 11:28:07;;;;;;;7.88;6.28;;;16.50;93.20;;;;;;4978677;28;20182;-77
2022/04/25 11:30:33;;;;;;;7.40;6.20;;;16.30;93.30;;;;;;5041654;28;20102;-78
2022/04/25 11:33:09;;;;;;;10.90;7.47;;;16.30;93.70;;;;;;5042574;28;20442;-78
2022/04/25 11:35:39;;;;;;;11.60;8.13;;;16.00;94.50;;;;;;5043770;28;20041;-76
2022/04/25 11:38:06;;;;;;;16.73;8.60;;;15.90;95.60;;;;;;5051584;28;20527;-76
2022/04/25 11:40:32;;;;;;;9.73;7.70;;;16.00;96.00;;;;;;5048343;28;20410;-76
2022/04/25 11:42:59;;;;;;;12.55;9.07;;;16.20;95.20;;;;;;5042162;28;20029;-76
2022/04/25 11:45:27;;;;;;;13.25;9.45;;;16.20;95.60;;;;;;5045254;28;20028;-77
2022/04/25 11:47:53;;;;;;;11.07;8.68;;;16.00;95.60;;;;;;5041409;28;20037;-77
2022/04/25 11:50:20;;;;;;;16.85;9.43;;;16.00;95.50;;;;;;5051757;28;20037;-76
2022/04/25 11:52:48;;;;;;;16.67;9.77;;;16.40;96.30;;;;;;5040634;28;20104;-77
2022/04/25 11:55:16;;;;;;;15.77;8.38;;;16.70;95.90;;;;;;5029197;28;20072;-76
2022/04/25 11:57:43;;;;;;;16.33;10.13;;;17.10;95.60;;;;;;5047510;28;20108;-77
2022/04/25 12:00:14;;;;;;;13.88;9.68;;;16.70;96.00;;;;;;5039040;28;20029;-77
2022/04/25 12:02:40;;;;;;;;;;;16.40;96.50;;;;;;5022693;28;20037;-77
2022/04/25 12:05:07;;;;;;;12.95;9.23;;;16.30;97.30;;;;;;5055214;28;20199;-77
2022/04/25 12:07:37;;;;;;;10.05;8.45;;;16.70;97.20;;;;;;5044047;28;20348;-80
2022/04/25 12:15:43;;;;;;;12.30;6.03;;;17.80;94.80;;;;;;5044533;28;20432;-77
2022/04/25 12:18:12;;;;;;;8.15;5.60;;;18.20;94.60;;;;;;5033582;28;20493;-77
2022/04/25 12:20:40;;;;;;;7.32;5.57;;;18.50;92.30;;;;;;5038269;28;20017;-77
2022/04/25 12:23:06;;;;;;;7.18;5.88;;;18.10;92.90;;;;;;5046162;28;20092;-77
2022/04/25 12:25:38;;;;;;;9.23;5.65;;;18.00;93.10;;;;;;5045849;28;20029;-78
2022/04/25 12:28:17;;;;;;;7.72;5.68;;;17.50;94.00;;;;;;5039444;28;20409;-79
2022/04/25 12:31:03;;;;;;;7.75;4.90;;;17.50;93.80;;;;;;5039533;28;20389;-79
2022/04/25 12:33:42;;;;;;;5.68;4.63;;;17.80;93.00;;;;;;5053396;28;20538;-80
2022/04/25 12:36:16;;;;;;;7.65;4.85;;;18.40;92.90;;;;;;5035871;28;20120;-77
2022/04/25 12:39:02;;;;;;;6.40;5.10;;;18.10;92.90;;;;;;5054950;28;20108;-77
2022/04/25 12:41:34;;;;;;;7.40;4.13;;;18.40;92.60;;;;;;5054182;28;20041;-77
2022/04/25 12:44:09;;;;;;;6.38;4.82;;;17.50;93.10;;;;;;5054078;28;20079;-77
2022/04/25 12:46:47;;;;;;;5.70;4.55;;;16.90;93.80;;;;;;5055218;28;20029;-77
2022/04/25 12:49:13;;;;;;;7.22;5.40;;;16.90;94.10;;;;;;5037097;28;20068;-77
2022/04/25 12:51:45;;;;;;;9.27;5.47;;;16.70;94.10;;;;;;5055134;28;20386;-76
2022/04/25 12:54:30;;;;;;;6.88;5.40;;;17.00;94.50;;;;;;5054687;28;20393;-79
2022/04/25 12:57:15;;;;;;;9.05;5.88;;;17.40;94.10;;;;;;5037065;28;20481;-78
2022/04/25 12:59:56;;;;;;;6.72;4.97;;;17.70;93.10;;;;;;5054793;28;20024;-77
2022/04/25 13:02:33;;;;;;;5.55;4.57;;;17.90;93.40;;;;;;5054876;28;20078;-77
2022/04/25 13:05:07;;;;;;;5.53;4.47;;;17.90;93.50;;;;;;5036890;28;20032;-79
2022/04/25 13:07:37;;;;;;;9.63;5.85;;;19.20;92.40;;;;;;5054851;28;20033;-76
2022/04/25 13:10:12;;;;;;;6.18;5.35;;;19.30;91.60;;;;;;5054439;28;20036;-79
2022/04/25 13:12:40;;;;;;;8.85;5.97;;;18.90;92.60;;;;;;5054722;28;20033;-77
2022/04/25 13:15:10;;;;;;;10.25;6.22;;;18.60;92.50;;;;;;5036745;28;20033;-78
2022/04/25 13:17:37;;;;;;;7.82;6.53;;;18.40;93.10;;;;;;5054525;28;20474;-79
2022/04/25 13:20:07;;;;;;;8.32;6.45;;;18.60;93.00;;;;;;5054577;28;20516;-79